AirNav   Pilot Hours Calculator
 
 400 users online  

99N Bamberg County Airport
Bamberg, South Carolina, USA

GOING TO BAMBERG?


FAA INFORMATION EFFECTIVE 15 AUGUST 2019

Location

FAA Identifier: 99N
Lat/Long: 33-18-16.3000N 081-06-30.3000W
33-18.271667N 081-06.505000W
33.3045278,-81.1084167
(estimated)
Elevation: 231 ft. / 70 m (estimated)
Variation: 07W (2010)
From city: 5 miles W of BAMBERG, SC
Time zone: UTC -4 (UTC -5 during Standard Time)
Zip code: 29042

Airport Operations

Airport use: Open to the public
Activation date: 10/1982
Control tower: no
ARTCC: JACKSONVILLE CENTER
FSS: ANDERSON FLIGHT SERVICE STATION
NOTAMs facility: AND (NOTAM-D service available)
Attendance: UNATNDD
Wind indicator: yes
Segmented circle: yes
Lights: MIRL RY 05/23, PAPI RY 05 AND PAPI RY 23 OPER DUSK-2200. AFTER 2200 ACTVT MIRL RY 05-23, PAPI RY 05 AND PAPI RY 23-CTAF.
Beacon: white-green (lighted land airport)
Operates sunset to sunrise.

Airport Communications

CTAF/UNICOM: 122.8
COLUMBIA APPROACH: 124.15 [SUN-FRI 0530-0030 SAT 0530-0000]
COLUMBIA DEPARTURE: 124.15 [SUN-FRI 0530-0030 SAT 0530-0000]
WX AWOS-3 at BNL (14 nm W): 119.775 (803-259-4536)
WX ASOS at OGB (15 nm NE): 118.525 (803-536-3901)
  • APCH/DEP SVC PRVDD BY COLUMBIA APCH CTL ON FREQS 124.15/338.2

Nearby radio navigation aids

VOR radial/distance  VOR name  Freq  Var
ALDr029/(19.8)ALLENDALE VOR116.7001W
CAEr187/33.3COLUMBIA VORTAC114.7002W
VANr259/34.6VANCE VORTAC110.4006W

 
NDB name  Hdg/Dist  Freq  Var  ID
AIKEN132/35.334706WAIK .- .. -.-

Airport Services

Parking: tiedowns
Airframe service: NONE
Powerplant service: NONE
Bottled oxygen: NONE
Bulk oxygen: NONE

Runway Information

Runway 5/23

Dimensions: 3603 x 60 ft. / 1098 x 18 m
Surface: asphalt, in good condition
Weight bearing capacity: 
Single wheel: 30.0
Double wheel: 60.0
Runway edge lights: medium intensity
RUNWAY 5  RUNWAY 23
Latitude: 33-18.056975N33-18.486865N
Longitude: 081-06.748578W081-06.260402W
Elevation: 208.3 ft.230.7 ft.
Traffic pattern: leftleft
Runway heading: 051 magnetic, 044 true231 magnetic, 224 true
Markings: nonprecision, in good conditionnonprecision, in good condition
Visual slope indicator: 2-light PAPI on left (3.00 degrees glide path)2-light PAPI on left (3.00 degrees glide path)
Touchdown point: yes, no lightsyes, no lights
Obstructions: 65 ft. tree, 558 ft. from runway, 293 ft. left of centerline, 5:1 slope to clear58 ft. tree, 635 ft. from runway, 309 ft. right of centerline, 7:1 slope to clear

Airport Ownership and Management from official FAA records

Ownership: Publicly-owned
Owner: BAMBERG COUNTY
PO BOX 149
BAMBERG, SC 29003
Phone 803-245-5191
Manager: MR. JOEY PRESTON
PO BOX 149
BAMBERG, SC 29003
Phone 803-245-5191
COUNTY ADMINISTRATOR.

Airport Operational Statistics

Aircraft based on the field: 7
Single engine airplanes: 7
    
Aircraft operations: avg 83/month *
69% transient general aviation
31% local general aviation
* for 12-month period ending 05 June 2018

Additional Remarks

FOR CD CTC JACKSONVILLE ARTCC AT 904-845-1592.

Instrument Procedures

NOTE: All procedures below are presented as PDF files. If you need a reader for these files, you should download the free Adobe Reader.

NOT FOR NAVIGATION. Please procure official charts for flight.
FAA instrument procedures published for use from 15 August 2019 at 0901Z to 12 September 2019 at 0900Z.

 
IAPs - Instrument Approach Procedures
RNAV (GPS) RWY 05   download (176KB)
RNAV (GPS) RWY 23   download (165KB)
NOTE: Special Take-Off Minimums/Departure Procedures apply   download (141KB)

Other nearby airports with instrument procedures:

KBNL - Barnwell Regional Airport (14 nm W)
KOGB - Orangeburg Municipal Airport (15 nm NE)
KXNO - North Air Force Auxiliary Field (18 nm N)
KAQX - Allendale County Airport (20 nm SW)
6J0 - Lexington County Airport (30 nm N)
 
Loc | Ops | Rwys | IFR | FBO | Links
Com | Nav | Svcs | Stats | Notes
Area around 99N (Bamberg County Airport)
 
Road maps at: MapQuest Bing Google
 
Aerial photo
WARNING: Photo may not be current or correct
Aerial photo of 99N (Bamberg County Airport)
Do you have a better or more recent aerial photo of Bamberg County Airport that you would like to share? If so, please send us your photo.

 
Sectional chart

 
Airport distance calculator
Flying to Bamberg County Airport? Find the distance to fly.

From to 99N

Sunrise and sunset
Times for 23-Aug-2019
 Local
(UTC-4)
 Zulu
(UTC)
Morning civil twilight06:2810:28
Sunrise06:5410:54
Sunset20:0100:01
Evening civil twilight20:2600:26

Current date and time
Zulu (UTC)  23-Aug-2019 10:08:33
Local (UTC-4)  23-Aug-2019 06:08:33
 
METAR
KBNL 
14nm W 
230955Z AUTO 00000KT 10SM CLR 24/23 A3004 RMK AO2
KOGB 
16nm NE 
230953Z AUTO 24004KT 10SM CLR 24/22 A3004 RMK AO2 SLP170 T02390222
KXNO 
18nm N 
230956Z AUTO 00000KT 10SM CLR 23/23 A3004 RMK AO2 SLP172 T02320232 $
KAQX 
20nm SW 
230955Z AUTO 00000KT 8SM BKN002 24/24 A3002 RMK AO2 TSNO
TAF
KOGB 
16nm NE 
230535Z 2306/2406 20005KT P6SM SCT250 FM231500 23005KT P6SM SCT040 FM231900 23008KT P6SM VCTS BKN040CB FM240200 18004KT P6SM OVC150
NOTAMs
Click for the latest NOTAMs
NOTAMs are issued by the DoD/FAA and will open in a separate window not controlled by AirNav.

 

 
 

Would you like to see your business listed on this page?

 If your business provides an interesting product or service to pilots, flight crews, aircraft, or users of the Bamberg County Airport, you should consider listing it here.  To start the listing process, click on the button below
 
Add a business
 

Other Pages about Bamberg County Airport

Update a link
 
Copyright © AirNav, LLC. All rights reserved. Privacy Policy  Contact